createdAt,value
2023-03-15T00:04:32.353Z,42.03
2023-03-15T00:14:33.773Z,42.03
2023-03-15T00:24:35.314Z,41.90
2023-03-15T00:34:36.704Z,41.94
2023-03-15T00:44:38.250Z,42.04
2023-03-15T00:54:39.680Z,41.98
2023-03-15T01:04:41.097Z,41.95
2023-03-15T01:14:42.554Z,41.92
2023-03-15T01:24:43.940Z,42.07
2023-03-15T01:34:45.367Z,41.99
2023-03-15T01:44:57.332Z,41.95
2023-03-15T01:55:11.192Z,42.00
2023-03-15T02:05:14.876Z,42.08
2023-03-15T02:15:16.290Z,42.04
2023-03-15T02:25:48.879Z,42.19
2023-03-15T02:35:51.334Z,42.16
2023-03-15T02:45:52.879Z,42.25
2023-03-15T02:55:54.434Z,42.28
2023-03-15T03:05:55.855Z,42.31
2023-03-15T03:15:59.790Z,42.20
2023-03-15T03:26:01.220Z,41.94
2023-03-15T03:36:04.512Z,42.13
2023-03-15T03:46:06.066Z,42.01
2023-03-15T03:56:07.851Z,42.07
2023-03-15T04:06:09.343Z,41.99
2023-03-15T04:16:10.831Z,42.16
2023-03-15T04:26:14.531Z,42.19
2023-03-15T04:36:18.934Z,42.16
2023-03-15T04:46:20.404Z,42.14
2023-03-15T04:56:22.041Z,42.25
2023-03-15T05:06:23.454Z,42.12
2023-03-15T05:16:24.886Z,42.19
2023-03-15T05:26:26.302Z,42.04
2023-03-15T05:36:27.765Z,41.68
2023-03-15T05:46:29.176Z,41.28
2023-03-15T05:56:30.716Z,41.02
2023-03-15T06:06:33.825Z,40.66
2023-03-15T06:16:35.712Z,40.50
2023-03-15T06:26:37.300Z,40.22
2023-03-15T06:36:39.854Z,40.28
2023-03-15T06:46:41.275Z,40.44
2023-03-15T06:56:43.064Z,40.69
2023-03-15T07:06:44.461Z,40.88
2023-03-15T07:16:47.484Z,40.97
2023-03-15T07:26:48.907Z,40.75
2023-03-15T07:36:50.405Z,40.66
2023-03-15T07:46:51.981Z,40.52
2023-03-15T07:56:53.417Z,40.38
2023-03-15T08:06:54.937Z,40.51
2023-03-15T08:16:56.512Z,40.63
2023-03-15T08:26:57.896Z,40.50
2023-03-15T08:36:59.497Z,40.50
2023-03-15T08:47:00.931Z,40.33
2023-03-15T08:57:02.538Z,39.28
2023-03-15T09:07:03.938Z,39.05
2023-03-15T09:17:05.357Z,39.31
2023-03-15T09:27:06.954Z,39.08
2023-03-15T09:37:08.621Z,39.33
2023-03-15T09:47:42.778Z,38.83
2023-03-15T09:57:55.343Z,39.00
2023-03-15T10:07:56.738Z,32.00
2023-03-15T10:17:57.980Z,34.53
2023-03-15T10:28:00.927Z,36.85
2023-03-15T10:38:02.586Z,37.92
2023-03-15T10:48:03.998Z,38.17
2023-03-15T10:58:20.719Z,37.77
2023-03-15T11:08:24.071Z,37.72
2023-03-15T11:18:31.520Z,38.22
2023-03-15T11:28:33.033Z,38.18
2023-03-15T11:38:44.154Z,38.15
2023-03-15T11:48:51.287Z,38.26
2023-03-15T11:59:06.475Z,38.21
2023-03-15T12:09:33.570Z,38.03
2023-03-15T12:19:34.972Z,38.42
2023-03-15T12:29:37.169Z,38.50
2023-03-15T12:39:50.537Z,38.63
2023-03-15T12:49:52.010Z,38.47
2023-03-15T13:00:13.232Z,38.44
2023-03-15T13:10:24.397Z,38.52
2023-03-15T13:20:47.465Z,38.38
2023-03-15T13:30:49.417Z,38.62
2023-03-15T13:40:50.994Z,38.71
2023-03-15T13:50:52.768Z,38.84
2023-03-15T14:01:01.065Z,38.87
2023-03-15T14:11:07.318Z,39.14
2023-03-15T14:21:19.830Z,39.11
2023-03-15T14:31:29.184Z,39.09
2023-03-15T14:41:33.169Z,39.16
2023-03-15T14:51:34.606Z,39.27
2023-03-15T15:01:36.239Z,39.19
2023-03-15T15:11:37.778Z,39.24
2023-03-15T15:21:39.253Z,39.29
2023-03-15T15:31:41.521Z,39.38
2023-03-15T15:41:42.936Z,39.22
2023-03-15T15:51:49.407Z,39.43
2023-03-15T16:02:00.173Z,39.34
2023-03-15T16:12:02.463Z,39.47
2023-03-15T16:22:03.993Z,39.40
2023-03-15T16:32:16.954Z,39.51
2023-03-15T16:42:23.782Z,39.42
2023-03-15T16:52:25.319Z,39.31
2023-03-15T17:02:28.614Z,39.33
2023-03-15T17:12:30.066Z,39.42
2023-03-15T17:22:31.467Z,39.89
2023-03-15T17:32:32.921Z,40.10
2023-03-15T17:42:34.415Z,40.37
2023-03-15T17:52:35.866Z,40.45
2023-03-15T18:02:40.755Z,40.53
2023-03-15T18:12:46.557Z,40.62
2023-03-15T18:22:48.361Z,40.35
2023-03-15T18:32:50.469Z,40.49
2023-03-15T18:42:51.940Z,40.49
2023-03-15T18:52:53.336Z,40.57
2023-03-15T19:02:56.749Z,40.55
2023-03-15T19:12:58.186Z,40.77
2023-03-15T19:22:59.596Z,40.73
2023-03-15T19:33:01.354Z,40.70
2023-03-15T19:43:02.885Z,40.95
2023-03-15T19:53:05.028Z,41.07
2023-03-15T20:03:06.749Z,40.72
2023-03-15T20:13:09.967Z,40.76
2023-03-15T20:23:11.509Z,40.89
2023-03-15T20:33:13.104Z,40.92
2023-03-15T20:43:14.518Z,41.07
2023-03-15T20:53:16.103Z,40.87
2023-03-15T21:03:17.745Z,40.64
2023-03-15T21:13:19.391Z,40.88
2023-03-15T21:23:22.108Z,40.96
2023-03-15T21:33:24.236Z,40.92
2023-03-15T21:43:26.588Z,41.01
2023-03-15T21:53:28.506Z,41.19
2023-03-15T22:03:29.943Z,41.16
2023-03-15T22:13:31.358Z,40.90
2023-03-15T22:23:32.930Z,41.33
2023-03-15T22:33:34.303Z,41.60
2023-03-15T22:43:36.038Z,41.54
2023-03-15T22:53:37.606Z,41.14
2023-03-15T23:03:39.398Z,41.45
2023-03-15T23:13:41.995Z,41.60
2023-03-15T23:23:43.427Z,41.38
2023-03-15T23:33:46.916Z,41.44
2023-03-15T23:43:48.315Z,41.54
2023-03-15T23:53:49.852Z,41.62
